createdAt,value
2022-09-26T00:01:42.837Z,95451.34
2022-09-26T00:04:22.304Z,95435.66
2022-09-26T00:06:52.408Z,95458.72
2022-09-26T00:09:21.176Z,95447.84
2022-09-26T00:11:51.670Z,95453.69
2022-09-26T00:14:23.083Z,95465.97
2022-09-26T00:16:51.824Z,95457.28
2022-09-26T00:19:20.686Z,95447.72
2022-09-26T00:21:49.307Z,95453.94
2022-09-26T00:24:17.610Z,95447.56
2022-09-26T00:26:46.007Z,95432.94
2022-09-26T00:29:16.363Z,95439.53
2022-09-26T00:31:47.613Z,95408.97
2022-09-26T00:34:17.753Z,95436.53
2022-09-26T00:36:46.219Z,95439.22
2022-09-26T00:39:16.224Z,95436.94
2022-09-26T00:41:45.657Z,95442.13
2022-09-26T00:44:54.682Z,95436.47
2022-09-26T00:47:40.499Z,95397.16
2022-09-26T00:50:15.276Z,95431.47
2022-09-26T00:52:47.496Z,95433.50
2022-09-26T00:55:18.946Z,95441.50
2022-09-26T00:57:53.419Z,95439.69
2022-09-26T01:00:23.781Z,95440.28
2022-09-26T01:02:54.422Z,95442.28
2022-09-26T01:05:24.618Z,95451.06
2022-09-26T01:07:55.049Z,95441.00
2022-09-26T01:10:24.678Z,95447.03
2022-09-26T01:12:53.574Z,95453.53
2022-09-26T01:15:21.864Z,95451.75
2022-09-26T01:17:50.775Z,95452.63
2022-09-26T01:20:28.069Z,95451.50
2022-09-26T01:23:20.978Z,95445.47
2022-09-26T01:26:22.201Z,95445.13
2022-09-26T01:29:16.586Z,95448.16
2022-09-26T01:32:11.703Z,95443.44
2022-09-26T01:34:50.979Z,95446.91
2022-09-26T01:37:28.126Z,95440.31
2022-09-26T01:40:09.000Z,95448.31
2022-09-26T01:43:00.064Z,95438.88
2022-09-26T01:45:44.573Z,95433.25
2022-09-26T01:48:18.597Z,95430.34
2022-09-26T01:50:51.699Z,95429.03
2022-09-26T01:53:24.210Z,95443.19
2022-09-26T01:55:57.870Z,95395.09
2022-09-26T01:58:32.182Z,95429.38
2022-09-26T02:01:03.530Z,95423.13
2022-09-26T02:03:38.280Z,95419.53
2022-09-26T02:06:11.337Z,95376.84
2022-09-26T02:08:43.094Z,95423.84
2022-09-26T02:11:14.308Z,95422.28
2022-09-26T02:13:48.980Z,95420.75
2022-09-26T02:16:22.744Z,95422.78
2022-09-26T02:18:58.224Z,95429.63
2022-09-26T02:21:26.806Z,95429.50
2022-09-26T02:23:55.627Z,95435.50
2022-09-26T02:26:25.289Z,95438.13
2022-09-26T02:28:53.825Z,95432.84
2022-09-26T02:31:26.077Z,95351.22
2022-09-26T02:33:55.804Z,95433.59
2022-09-26T02:36:25.216Z,95423.84
2022-09-26T02:38:53.444Z,95421.31
2022-09-26T02:41:30.366Z,95404.97
2022-09-26T02:44:21.359Z,95406.28
2022-09-26T02:47:11.415Z,95406.47
2022-09-26T02:49:56.283Z,95410.41
2022-09-26T02:52:37.490Z,95404.97
2022-09-26T02:55:16.863Z,95402.91
2022-09-26T02:57:52.473Z,95385.81
2022-09-26T03:00:24.556Z,95395.63
2022-09-26T03:02:58.980Z,95385.03
2022-09-26T03:05:31.413Z,95407.78
2022-09-26T03:08:04.979Z,95405.91
2022-09-26T03:10:35.073Z,95392.94
2022-09-26T03:13:08.182Z,95393.75
2022-09-26T03:15:40.750Z,95392.81
2022-09-26T03:18:13.372Z,95389.59
2022-09-26T03:20:44.237Z,95389.13
2022-09-26T03:23:12.423Z,95386.72
2022-09-26T03:25:40.957Z,95388.63
2022-09-26T03:28:10.244Z,95383.66
2022-09-26T03:30:39.986Z,95312.44
2022-09-26T03:33:09.228Z,95379.78
2022-09-26T03:35:37.503Z,95379.91
2022-09-26T03:38:10.117Z,95368.72
2022-09-26T03:40:42.368Z,95363.47
2022-09-26T03:43:11.229Z,95371.97
2022-09-26T03:45:39.860Z,95372.06
2022-09-26T03:48:08.123Z,95373.66
2022-09-26T03:50:36.444Z,95369.56
2022-09-26T03:53:06.347Z,95379.44
2022-09-26T03:55:35.981Z,95382.09
2022-09-26T03:58:04.230Z,95381.66
2022-09-26T04:00:33.649Z,95383.56
2022-09-26T04:03:03.253Z,95382.53
2022-09-26T04:05:31.526Z,95386.59
2022-09-26T04:08:03.135Z,95395.31
2022-09-26T04:10:31.413Z,95391.94
2022-09-26T04:13:01.310Z,95389.03
2022-09-26T04:15:30.156Z,95398.94
2022-09-26T04:17:58.492Z,95330.47
2022-09-26T04:20:26.844Z,95398.09
2022-09-26T04:22:55.257Z,95389.84
2022-09-26T04:25:23.735Z,95379.75
2022-09-26T04:27:52.056Z,95396.47
2022-09-26T04:30:21.758Z,95388.63
2022-09-26T04:32:49.995Z,95385.41
2022-09-26T04:35:18.355Z,95388.06
2022-09-26T04:37:47.398Z,95358.28
2022-09-26T04:40:15.880Z,95389.38
2022-09-26T04:42:44.181Z,95396.00
2022-09-26T04:45:12.443Z,95391.72
2022-09-26T04:47:42.124Z,95391.00
2022-09-26T04:50:10.674Z,95392.72
2022-09-26T04:52:38.885Z,95388.25
2022-09-26T04:55:07.767Z,95385.16
2022-09-26T04:57:38.186Z,95381.41
2022-09-26T05:00:08.149Z,95398.88
2022-09-26T05:02:36.451Z,95386.28
2022-09-26T05:05:09.785Z,95386.13
2022-09-26T05:07:41.358Z,95383.78
2022-09-26T05:10:11.404Z,95385.25
2022-09-26T05:12:40.444Z,95381.28
2022-09-26T05:15:10.090Z,95386.28
2022-09-26T05:17:38.755Z,95389.81
2022-09-26T05:20:10.068Z,95394.47
2022-09-26T05:22:38.863Z,95397.53
2022-09-26T05:25:25.465Z,95397.50
2022-09-26T05:27:54.387Z,95387.53
2022-09-26T05:30:22.640Z,95387.84
2022-09-26T05:32:50.855Z,95382.44
2022-09-26T05:35:20.729Z,95391.97
2022-09-26T05:37:49.001Z,95387.47
2022-09-26T05:40:35.003Z,95392.31
2022-09-26T05:43:04.215Z,95393.63
2022-09-26T05:45:32.843Z,95391.50
2022-09-26T05:48:01.119Z,95387.81
2022-09-26T05:50:30.780Z,95384.59
2022-09-26T05:52:59.261Z,95359.75
2022-09-26T05:55:28.064Z,95335.59
2022-09-26T05:57:59.101Z,95375.47
2022-09-26T06:00:27.351Z,95365.03
2022-09-26T06:02:57.017Z,95375.09
2022-09-26T06:05:25.484Z,95331.66
2022-09-26T06:07:55.212Z,95376.34
2022-09-26T06:10:23.852Z,95252.84
2022-09-26T06:12:52.061Z,95298.91
2022-09-26T06:15:20.469Z,95313.84
2022-09-26T06:17:48.753Z,95379.00
2022-09-26T06:20:17.364Z,95358.53
2022-09-26T06:22:45.546Z,95367.19
2022-09-26T06:25:15.156Z,95375.84
2022-09-26T06:27:44.033Z,95376.66
2022-09-26T06:30:12.952Z,95381.50
2022-09-26T06:32:41.507Z,95217.53
2022-09-26T06:35:10.865Z,95272.28
2022-09-26T06:37:39.188Z,95360.38
2022-09-26T06:40:11.654Z,95377.50
2022-09-26T06:42:41.975Z,95372.59
2022-09-26T06:45:11.875Z,95364.69
2022-09-26T06:47:40.296Z,95371.66
2022-09-26T06:50:09.521Z,95369.72
2022-09-26T06:52:37.802Z,95379.25
2022-09-26T06:55:08.614Z,95372.69
2022-09-26T06:57:42.977Z,95380.53
2022-09-26T07:00:12.976Z,95376.38
2022-09-26T07:02:51.232Z,95235.84
2022-09-26T07:05:19.694Z,95369.03
2022-09-26T07:07:49.179Z,95364.66
2022-09-26T07:10:19.868Z,95367.59
2022-09-26T07:12:50.091Z,95361.97
2022-09-26T07:15:19.762Z,95348.28
2022-09-26T07:17:49.337Z,95208.94
2022-09-26T07:20:20.138Z,95357.31
2022-09-26T07:22:48.597Z,95348.09
2022-09-26T07:25:18.138Z,95353.75
2022-09-26T07:27:52.696Z,95358.81
2022-09-26T07:30:21.052Z,95358.19
2022-09-26T07:32:49.271Z,95357.94
2022-09-26T07:35:18.365Z,95287.84
2022-09-26T07:37:46.828Z,95346.06
2022-09-26T07:40:34.030Z,95344.03
2022-09-26T07:43:21.307Z,95335.72
2022-09-26T07:46:10.340Z,95327.13
2022-09-26T07:48:55.870Z,95322.38
2022-09-26T07:51:24.413Z,95237.69
2022-09-26T07:53:52.656Z,95310.66
2022-09-26T07:56:20.856Z,95309.91
2022-09-26T07:58:50.742Z,95307.88
2022-09-26T08:01:19.209Z,95309.13
2022-09-26T08:03:48.769Z,95316.84
2022-09-26T08:06:20.355Z,95314.63
2022-09-26T08:08:50.377Z,95303.47
2022-09-26T08:11:20.970Z,95305.69
2022-09-26T08:13:51.266Z,95237.06
2022-09-26T08:16:23.051Z,95263.47
2022-09-26T08:18:52.196Z,95255.63
2022-09-26T08:21:20.930Z,95236.22
2022-09-26T08:23:49.630Z,95280.22
2022-09-26T08:26:24.025Z,95284.66
2022-09-26T08:28:54.590Z,95282.38
2022-09-26T08:31:22.946Z,95272.34
2022-09-26T08:33:51.258Z,95271.22
2022-09-26T08:36:19.481Z,95271.47
2022-09-26T08:38:50.862Z,95273.53
2022-09-26T08:41:35.876Z,95210.63
2022-09-26T08:44:17.034Z,95263.50
2022-09-26T08:46:57.569Z,95274.97
2022-09-26T08:49:41.756Z,95268.19
2022-09-26T08:52:26.864Z,95250.97
2022-09-26T08:54:56.765Z,95256.66
2022-09-26T08:57:35.439Z,95251.47
2022-09-26T09:00:12.015Z,95257.41
2022-09-26T09:02:45.485Z,95244.16
2022-09-26T09:05:19.232Z,95217.00
2022-09-26T09:07:51.556Z,95229.38
2022-09-26T09:10:35.006Z,95238.38
2022-09-26T09:13:15.818Z,95234.75
2022-09-26T09:16:02.761Z,95215.22
2022-09-26T09:18:39.333Z,95232.63
2022-09-26T09:21:20.041Z,95217.75
2022-09-26T09:24:00.579Z,95206.09
2022-09-26T09:30:03.369Z,95205.28
2022-09-26T09:32:48.340Z,95201.59
2022-09-26T09:35:19.391Z,95201.34
2022-09-26T09:37:52.197Z,95209.25
2022-09-26T09:40:29.418Z,95206.50
2022-09-26T09:43:03.959Z,95194.44
2022-09-26T09:45:37.554Z,95195.09
2022-09-26T09:48:10.605Z,95193.22
2022-09-26T09:50:50.492Z,95197.13
2022-09-26T09:53:37.628Z,95208.34
2022-09-26T09:56:14.682Z,95199.78
2022-09-26T09:59:04.764Z,95168.28
2022-09-26T10:01:37.054Z,95166.72
2022-09-26T10:04:16.241Z,95177.66
2022-09-26T10:06:47.307Z,95169.06
2022-09-26T10:09:39.458Z,95156.13
2022-09-26T10:12:17.198Z,95178.03
2022-09-26T10:14:52.274Z,95178.03
2022-09-26T10:17:22.142Z,95169.34
2022-09-26T10:19:52.540Z,95163.22
2022-09-26T10:22:29.369Z,95167.50
2022-09-26T10:25:03.681Z,95163.09
2022-09-26T10:27:38.345Z,95179.16
2022-09-26T10:30:26.194Z,95170.13
2022-09-26T10:32:57.296Z,95167.94
2022-09-26T10:35:29.824Z,95171.00
2022-09-26T10:38:03.298Z,95155.88
2022-09-26T10:40:46.868Z,95142.66
2022-09-26T10:43:38.112Z,95138.28
2022-09-26T10:46:11.535Z,95147.25
2022-09-26T10:48:47.259Z,95137.38
2022-09-26T10:51:26.951Z,95130.47
2022-09-26T10:54:04.174Z,95118.69
2022-09-26T10:56:38.536Z,95114.13
2022-09-26T10:59:09.136Z,95108.75
2022-09-26T11:01:43.139Z,95103.97
2022-09-26T11:04:39.416Z,95110.97
2022-09-26T11:07:10.645Z,95107.09
2022-09-26T11:09:39.721Z,95100.06
2022-09-26T11:12:25.862Z,95097.97
2022-09-26T11:14:59.916Z,95094.56
2022-09-26T11:17:47.292Z,95085.91
2022-09-26T11:20:28.718Z,95081.84
2022-09-26T11:23:08.089Z,95053.47
2022-09-26T11:25:50.127Z,95069.31
2022-09-26T11:28:24.181Z,95050.25
2022-09-26T11:30:57.434Z,95055.22
2022-09-26T11:33:26.269Z,95056.34
2022-09-26T11:36:11.057Z,95045.06
2022-09-26T11:38:47.977Z,95041.16
2022-09-26T11:41:39.208Z,95030.44
2022-09-26T11:44:22.171Z,95023.38
2022-09-26T11:47:09.280Z,95025.66
2022-09-26T11:49:54.075Z,95023.50
2022-09-26T11:52:39.824Z,95024.25
2022-09-26T11:55:24.379Z,95013.75
2022-09-26T11:58:03.565Z,95000.41
2022-09-26T12:00:42.057Z,94995.75
2022-09-26T12:03:51.340Z,94991.63
2022-09-26T12:06:32.014Z,94993.34
2022-09-26T12:09:32.912Z,94991.66
2022-09-26T12:12:12.615Z,94969.50
2022-09-26T12:14:54.422Z,94945.13
2022-09-26T12:17:36.425Z,94976.22
2022-09-26T12:20:21.641Z,94981.97
2022-09-26T12:22:59.353Z,94969.97
2022-09-26T12:25:39.446Z,94955.91
2022-09-26T12:28:45.282Z,94963.69
2022-09-26T12:31:21.947Z,94956.66
2022-09-26T12:34:07.914Z,94952.66
2022-09-26T12:36:51.571Z,94948.41
2022-09-26T12:39:48.957Z,94943.47
2022-09-26T12:42:31.289Z,94937.66
2022-09-26T12:45:31.380Z,94938.81
2022-09-26T12:48:19.127Z,94920.50
2022-09-26T12:50:58.913Z,94935.69
2022-09-26T12:53:52.895Z,94928.25
2022-09-26T12:56:34.008Z,94911.81
2022-09-26T12:59:18.282Z,94911.53
2022-09-26T13:02:05.205Z,94898.72
2022-09-26T13:05:06.246Z,94898.72
2022-09-26T13:07:48.563Z,94900.28
2022-09-26T13:10:32.353Z,94899.09
2022-09-26T13:13:36.816Z,94894.81
2022-09-26T13:16:21.760Z,94899.50
2022-09-26T13:18:57.826Z,94905.72
2022-09-26T13:21:41.392Z,94903.34
2022-09-26T13:24:18.866Z,94905.38
2022-09-26T13:26:52.315Z,94886.97
2022-09-26T13:29:26.655Z,94905.84
2022-09-26T13:32:05.215Z,94890.16
2022-09-26T13:34:40.190Z,94911.28
2022-09-26T13:37:15.753Z,94898.97
2022-09-26T13:39:51.486Z,94892.78
2022-09-26T13:42:25.644Z,94878.09
2022-09-26T13:45:04.350Z,94888.97
2022-09-26T13:47:42.330Z,94894.44
2022-09-26T13:50:23.454Z,94882.31
2022-09-26T13:53:05.696Z,94884.28
2022-09-26T13:55:34.583Z,94891.91
2022-09-26T13:58:07.359Z,94896.19
2022-09-26T14:00:54.746Z,94886.47
2022-09-26T14:03:40.489Z,94884.19
2022-09-26T14:06:37.242Z,94891.47
2022-09-26T14:09:25.788Z,94892.72
2022-09-26T14:12:22.467Z,94895.97
2022-09-26T14:15:16.371Z,94862.53
2022-09-26T14:18:13.668Z,94878.47
2022-09-26T14:20:59.287Z,94866.03
2022-09-26T14:23:47.993Z,94880.84
2022-09-26T14:26:21.119Z,94867.88
2022-09-26T14:28:54.672Z,94871.69
2022-09-26T14:31:41.400Z,94850.38
2022-09-26T14:34:23.688Z,94886.56
2022-09-26T14:36:54.074Z,94881.16
2022-09-26T14:39:40.953Z,94879.25
2022-09-26T14:42:12.129Z,94879.66
2022-09-26T14:44:52.509Z,94871.88
2022-09-26T14:47:21.217Z,94874.13
2022-09-26T14:49:59.592Z,94869.91
2022-09-26T14:52:28.332Z,94867.53
2022-09-26T14:55:02.258Z,94862.44
2022-09-26T14:57:34.331Z,94875.31
2022-09-26T15:00:03.913Z,94799.81
2022-09-26T15:02:41.058Z,94882.78
2022-09-26T15:05:26.036Z,94891.78
2022-09-26T15:07:57.071Z,94892.19
2022-09-26T15:10:40.283Z,94897.47
2022-09-26T15:13:28.309Z,94892.88
2022-09-26T15:16:08.275Z,94879.53
2022-09-26T15:18:40.180Z,94889.78
2022-09-26T15:21:20.976Z,94878.84
2022-09-26T15:23:52.148Z,94872.94
2022-09-26T15:26:24.818Z,94883.63
2022-09-26T15:28:54.584Z,94889.50
2022-09-26T15:31:26.673Z,94891.69
2022-09-26T15:34:00.413Z,94892.22
2022-09-26T15:36:34.909Z,94896.69
2022-09-26T15:39:11.690Z,94889.16
2022-09-26T15:42:04.743Z,94886.44
2022-09-26T15:44:35.527Z,94888.53
2022-09-26T15:47:27.145Z,94894.00
2022-09-26T15:50:06.295Z,94899.16
2022-09-26T15:52:35.520Z,94895.91
2022-09-26T15:55:06.419Z,94901.91
2022-09-26T15:57:38.161Z,94883.59
2022-09-26T16:00:07.240Z,94874.53
2022-09-26T16:02:37.343Z,94888.06
2022-09-26T16:05:12.702Z,94888.41
2022-09-26T16:07:42.638Z,94897.19
2022-09-26T16:10:22.524Z,94912.03
2022-09-26T16:12:52.439Z,94830.59
2022-09-26T16:15:29.937Z,94912.84
2022-09-26T16:17:59.967Z,94877.00
2022-09-26T16:20:30.893Z,94911.16
2022-09-26T16:23:04.399Z,94850.75
2022-09-26T16:25:35.688Z,94914.63
2022-09-26T16:28:41.956Z,94890.72
2022-09-26T16:31:23.356Z,94910.03
2022-09-26T16:33:53.705Z,94914.47
2022-09-26T16:36:24.753Z,94909.41
2022-09-26T16:38:55.304Z,94906.22
2022-09-26T16:41:48.825Z,94917.28
2022-09-26T16:44:33.611Z,94919.03
2022-09-26T16:47:05.660Z,94915.78
2022-09-26T16:49:46.895Z,94918.25
2022-09-26T16:52:25.312Z,94911.31
2022-09-26T16:54:54.107Z,94913.50
2022-09-26T16:57:25.308Z,94885.16
2022-09-26T17:00:15.478Z,94910.84
2022-09-26T17:02:43.016Z,94915.81
2022-09-26T17:05:16.997Z,94902.88
2022-09-26T17:07:45.932Z,94896.84
2022-09-26T17:10:14.476Z,94895.34
2022-09-26T17:12:43.081Z,94880.06
2022-09-26T17:15:21.073Z,94896.91
2022-09-26T17:17:53.728Z,94876.22
2022-09-26T17:20:23.767Z,94892.13
2022-09-26T17:22:52.220Z,94840.31
2022-09-26T17:25:20.532Z,94897.22
2022-09-26T17:27:55.197Z,94890.19
2022-09-26T17:30:25.051Z,94872.09
2022-09-26T17:32:54.549Z,94882.06
2022-09-26T17:35:26.493Z,94883.97
2022-09-26T17:37:55.689Z,94872.97
2022-09-26T17:40:25.499Z,94875.38
2022-09-26T17:42:56.670Z,94883.84
2022-09-26T17:45:30.404Z,94881.94
2022-09-26T17:48:00.474Z,94832.44
2022-09-26T17:50:31.439Z,94874.84
2022-09-26T17:53:02.426Z,94890.09
2022-09-26T17:55:31.418Z,94892.44
2022-09-26T17:57:59.856Z,94887.25
2022-09-26T18:00:38.978Z,94891.94
2022-09-26T18:03:14.514Z,94887.50
2022-09-26T18:05:45.758Z,94888.53
2022-09-26T18:08:20.452Z,94878.63
2022-09-26T18:10:51.672Z,94887.75
2022-09-26T18:13:25.461Z,94884.75
2022-09-26T18:15:57.998Z,94886.91
2022-09-26T18:18:29.339Z,94886.97
2022-09-26T18:21:03.108Z,94863.91
2022-09-26T18:23:40.986Z,94850.63
2022-09-26T18:26:15.116Z,94882.56
2022-09-26T18:28:45.304Z,94883.13
2022-09-26T18:31:15.664Z,94881.59
2022-09-26T18:33:44.408Z,94875.72
2022-09-26T18:36:13.536Z,94818.38
2022-09-26T18:38:42.415Z,94877.66
2022-09-26T18:41:13.000Z,94869.84
2022-09-26T18:43:43.284Z,94870.47
2022-09-26T18:46:17.172Z,94867.13
2022-09-26T18:48:47.479Z,94872.28
2022-09-26T18:51:16.327Z,94875.47
2022-09-26T18:53:45.151Z,94865.75
2022-09-26T18:56:31.211Z,94860.47
2022-09-26T18:59:00.108Z,94861.06
2022-09-26T19:01:33.271Z,94863.19
2022-09-26T19:04:04.134Z,94861.41
2022-09-26T19:06:36.497Z,94866.22
2022-09-26T19:09:07.913Z,94861.97
2022-09-26T19:11:36.721Z,94865.09
2022-09-26T19:14:14.038Z,94873.59
2022-09-26T19:16:45.090Z,94859.69
2022-09-26T19:19:13.813Z,94858.09
2022-09-26T19:21:44.577Z,94854.78
2022-09-26T19:24:21.227Z,94857.84
2022-09-26T19:26:52.954Z,94846.56
2022-09-26T19:29:30.029Z,94851.16
2022-09-26T19:32:00.568Z,94813.31
2022-09-26T19:34:32.763Z,94841.28
2022-09-26T19:37:03.283Z,94854.88
2022-09-26T19:39:31.891Z,94850.25
2022-09-26T19:42:00.098Z,94843.66
2022-09-26T19:44:28.415Z,94846.34
2022-09-26T19:46:59.378Z,94857.34
2022-09-26T19:49:30.145Z,94810.38
2022-09-26T19:52:01.107Z,94841.19
2022-09-26T19:54:30.158Z,94844.38
2022-09-26T19:56:58.906Z,94834.91
2022-09-26T19:59:27.769Z,94835.47
2022-09-26T20:01:56.378Z,94837.59
2022-09-26T20:04:24.736Z,94840.84
2022-09-26T20:06:54.593Z,94845.84
2022-09-26T20:09:22.852Z,94832.34
2022-09-26T20:11:51.110Z,94844.06
2022-09-26T20:14:25.296Z,94853.31
2022-09-26T20:16:59.583Z,94796.59
2022-09-26T20:19:36.648Z,94855.59
2022-09-26T20:22:09.064Z,94858.28
2022-09-26T20:24:39.835Z,94845.38
2022-09-26T20:27:14.173Z,94837.25
2022-09-26T20:29:59.941Z,94832.75
2022-09-26T20:32:28.260Z,94834.97
2022-09-26T20:35:00.849Z,94828.81
2022-09-26T20:37:32.612Z,94823.41
2022-09-26T20:40:01.431Z,94830.31
2022-09-26T20:42:37.177Z,94838.50
2022-09-26T20:45:06.210Z,94824.38
2022-09-26T20:47:37.544Z,94841.00
2022-09-26T20:50:06.487Z,94840.84
2022-09-26T20:52:36.112Z,94833.66
2022-09-26T20:55:04.501Z,94817.97
2022-09-26T20:57:32.744Z,94824.38
2022-09-26T21:00:01.013Z,94819.56
2022-09-26T21:02:33.416Z,94811.94
2022-09-26T21:05:02.448Z,94801.06
2022-09-26T21:07:33.210Z,94794.03
2022-09-26T21:10:03.003Z,94790.38
2022-09-26T21:12:31.258Z,94793.66
2022-09-26T21:14:59.529Z,94792.47
2022-09-26T21:17:29.968Z,94787.34
2022-09-26T21:19:58.396Z,94776.22
2022-09-26T21:22:28.466Z,94779.13
2022-09-26T21:24:56.965Z,94782.53
2022-09-26T21:27:26.723Z,94739.81
2022-09-26T21:29:54.922Z,94775.31
2022-09-26T21:32:24.465Z,94781.69
2022-09-26T21:34:59.391Z,94790.47
2022-09-26T21:37:27.769Z,94777.03
2022-09-26T21:39:56.184Z,94768.56
2022-09-26T21:42:27.546Z,94774.44
2022-09-26T21:45:00.471Z,94764.28
2022-09-26T21:47:29.515Z,94765.44
2022-09-26T21:49:58.076Z,94765.69
2022-09-26T21:52:31.240Z,94760.09
2022-09-26T21:55:01.203Z,94744.44
2022-09-26T21:57:35.193Z,94750.34
2022-09-26T22:00:07.155Z,94746.44
2022-09-26T22:02:35.516Z,94739.75
2022-09-26T22:05:03.825Z,94741.19
2022-09-26T22:07:32.089Z,94749.13
2022-09-26T22:10:00.375Z,94749.13
2022-09-26T22:12:30.476Z,94738.69
2022-09-26T22:14:59.425Z,94751.25
2022-09-26T22:17:27.945Z,94756.16
2022-09-26T22:19:56.526Z,94750.81
2022-09-26T22:22:24.916Z,94747.28
2022-09-26T22:24:54.066Z,94590.81
2022-09-26T22:27:22.602Z,94731.91
2022-09-26T22:29:52.252Z,94729.22
2022-09-26T22:32:20.470Z,94718.25
2022-09-26T22:34:49.300Z,94722.50
2022-09-26T22:37:17.590Z,94716.56
2022-09-26T22:39:45.793Z,94717.31
2022-09-26T22:42:14.093Z,94706.63
2022-09-26T22:44:42.407Z,94709.16
2022-09-26T22:47:12.161Z,94715.34
2022-09-26T22:49:40.376Z,94714.31
2022-09-26T22:52:08.599Z,94723.13
2022-09-26T22:54:36.896Z,94677.84
2022-09-26T22:57:05.317Z,94704.38
2022-09-26T22:59:33.600Z,94705.63
2022-09-26T23:02:01.948Z,94709.53
2022-09-26T23:04:45.428Z,94707.28
2022-09-26T23:07:14.195Z,94704.56
2022-09-26T23:09:42.472Z,94706.63
2022-09-26T23:12:11.905Z,94703.25
2022-09-26T23:14:40.224Z,94699.91
2022-09-26T23:17:08.525Z,94690.50
2022-09-26T23:19:38.341Z,94598.47
2022-09-26T23:22:06.694Z,94677.84
2022-09-26T23:24:34.915Z,94685.13
2022-09-26T23:27:03.227Z,94675.00
2022-09-26T23:29:31.585Z,94686.34
2022-09-26T23:31:59.795Z,94687.34
2022-09-26T23:34:28.008Z,94681.09
2022-09-26T23:36:57.733Z,94607.72
2022-09-26T23:39:25.943Z,94667.09
2022-09-26T23:41:54.233Z,94663.63
2022-09-26T23:44:22.477Z,94669.63
2022-09-26T23:46:50.731Z,94674.38
2022-09-26T23:49:18.992Z,94662.25
2022-09-26T23:51:47.920Z,94658.78
2022-09-26T23:54:17.550Z,94651.50
2022-09-26T23:56:45.759Z,94646.34
2022-09-26T23:59:14.112Z,94640.53
